Terminal Aerodrome Forecast
Issued by NWS

Home | Current Version | Previous Version | Text Only | Print | Product List | Glossary On
Versions: 1 2 3 4 5 6 7 8 9 10 11 12 13 14 15 16
000
FTUS44 KBMX 201700 RRA
TAFANB
TAF
KANB 201748Z 2018/2118 02004KT 4SM BR BKN005 OVC025
     FM202100 01004KT P6SM BKN010
     FM210000 03003KT P6SM BKN025
     FM210600 03003KT 5SM BR BKN010=

USA.gov is the U.S. government's official web portal to all federal, state and local government web resources and services.